Latest Weather Observations for Newdegate

IDW60801

Issued at 10:03 pm WST Tuesday 23 April 2019 (issued every 10 minutes, with the page automatically refreshed every 10 minutes)

About weather observations | Map of weather stations | Latest weather observations for WA | Other Formats
Station Details ID: 010692 Name: NEWDEGATE RESEARCH STATION Lat: -33.11 Lon: 118.84 Height: 320.0 m
Data from the previous 72 hours. | See also: Recent months at Newdegate
Date/Time
WST
Temp
°C
App
Temp
°C
Dew
Point
°C
Rel
Hum
%
Delta-T
°C
Wind Press
QNH
hPa
Press
MSL
hPa
Rain since
9am
mm
Dir  Spd
km/h
Gust
km/h
Spd
kts
Gust
kts
23/10:00pm 13.6 12.7 11.5 87 1.1 SSE 7 13 4 7 1027.9 1027.2 0.0
23/09:30pm 14.1 13.0 11.8 86 1.3 SSE 9 13 5 7 1027.7 1027.0 0.0
23/09:00pm 15.0 12.5 12.3 84 1.5 SE 17 20 9 11 1027.3 1026.6 0.0
23/08:30pm 15.4 13.2 12.2 81 1.8 SSE 15 20 8 11 1027.0 1026.3 0.0
23/08:00pm 16.5 14.4 12.3 76 2.3 SE 15 20 8 11 1026.7 1026.0 0.0
23/07:30pm 17.0 14.1 9.7 62 3.9 SE 15 19 8 10 1026.4 1025.7 0.0
23/07:00pm 14.2 11.5 3.9 50 4.8 SSW 7 11 4 6 1025.7 1025.0 0.0
23/06:30pm 13.8 11.1 2.7 47 5.0 SSE 6 7 3 4 1025.6 1024.9 0.0
23/06:00pm 16.2 13.2 2.2 39 6.3 SE 7 9 4 5 1025.2 1024.5 0.0
23/05:56pm 16.6 13.6 1.9 37 6.7 SE 7 9 4 5 1025.1 1024.4 0.0
23/05:30pm 21.7 19.0 2.9 29 9.1 ESE 6 7 3 4 1024.9 1024.2 0.0
23/05:00pm 23.6 20.8 3.0 26 10.0 ESE 7 11 4 6 1024.6 1023.9 0.0
23/04:30pm 24.6 21.4 3.3 25 10.6 ESE 9 15 5 8 1024.4 1023.7 0.0
23/04:00pm 24.8 22.1 2.9 24 10.7 SE 6 11 3 6 1024.2 1023.5 0.0
23/03:30pm 25.0 23.1 3.0 24 10.9 SSE 2 9 1 5 1024.0 1023.3 0.0
23/03:00pm 25.3 23.1 3.3 24 10.9 NW 4 7 2 4 1024.1 1023.4 0.0
23/02:30pm 25.2 23.0 3.2 24 10.9 NNW 4 9 2 5 1024.1 1023.4 0.0
23/02:00pm 24.8 22.3 3.5 25 10.6 NNE 6 9 3 5 1024.1 1023.4 0.0
23/01:30pm 24.4 21.6 3.1 25 10.5 NW 7 15 4 8 1024.0 1023.3 0.0
23/01:00pm 23.5 20.8 2.9 26 10.0 SW 6 15 3 8 1024.4 1023.7 0.0
23/12:30pm 23.9 21.1 3.2 26 10.2 NE 7 11 4 6 1024.9 1024.2 0.0
23/12:00pm 23.6 21.4 3.5 27 9.9 NE 4 9 2 5 1025.2 1024.5 0.0
23/11:30am 23.3 20.6 3.8 28 9.7 WNW 7 17 4 9 1025.8 1025.1 0.0
23/11:00am 22.6 19.4 3.2 28 9.4 WNW 9 17 5 9 1026.2 1025.5 0.0
23/10:30am 22.1 19.1 4.2 31 8.9 NNW 9 17 5 9 1026.5 1025.8 0.0
23/10:00am 19.9 16.8 3.6 34 7.8 NW 9 15 5 8 1026.9 1026.2 0.0
23/09:30am 18.3 15.9 4.1 39 6.8 N 6 9 3 5 1026.9 1026.2 0.0
23/09:00am 16.7 15.1 4.4 44 5.8 NE 2 4 1 2 1027.0 1026.3 0.0
23/08:30am 14.7 13.2 5.2 53 4.6 ENE 2 6 1 3 1026.8 1026.1 0.0
23/08:00am 12.2 11.1 5.1 62 3.3 CALM 0 0 0 0 1026.5 1025.8 0.0
23/07:30am 9.1 7.9 4.7 74 2.0 CALM 0 0 0 0 1026.3 1025.6 0.0
23/07:00am 6.2 4.8 3.7 84 1.1 CALM 0 0 0 0 1026.0 1025.3 0.0
23/06:30am 4.6 2.9 1.8 82 1.1 CALM 0 0 0 0 1025.7 1025.0 0.0
23/06:00am 5.0 3.3 2.0 81 1.2 CALM 0 0 0 0 1025.4 1024.8 0.0
23/05:30am 5.2 3.5 2.0 80 1.3 CALM 0 0 0 0 1025.2 1024.5 0.0
23/05:00am 5.3 3.6 2.0 79 1.3 CALM 0 0 0 0 1025.1 1024.4 0.0
23/04:30am 5.8 4.2 2.4 79 1.4 CALM 0 0 0 0 1025.1 1024.4 0.0
23/04:00am 6.0 4.4 2.5 78 1.5 CALM 0 0 0 0 1024.9 1024.2 0.0
23/03:30am 6.5 5.0 2.9 78 1.5 CALM 0 0 0 0 1024.8 1024.1 0.0
23/03:00am 6.2 4.5 2.1 75 1.7 CALM 0 0 0 0 1024.7 1024.0 0.0
23/02:30am 7.4 5.1 2.9 73 1.9 SE 4 4 2 2 1024.7 1024.0 0.0
23/02:00am 6.8 5.3 2.9 76 1.6 CALM 0 0 0 0 1024.7 1024.0 0.0
23/01:30am 6.7 5.1 2.6 75 1.7 CALM 0 0 0 0 1024.6 1023.9 0.0
23/01:00am 7.3 5.7 2.6 72 2.0 CALM 0 0 0 0 1024.6 1023.9 0.0
23/12:30am 7.4 5.5 2.7 72 2.0 SSW 2 4 1 2 1024.6 1023.9 0.0
23/12:00am 7.9 6.2 2.0 66 2.5 CALM 0 0 0 0 1024.6 1023.9 0.0
 
Date/Time
WST
Temp
°C
App
Temp
°C
Dew
Point
°C
Rel
Hum
%
Delta-T
°C
Wind Press
QNH
hPa
Press
MSL
hPa
Rain since
9am
mm
Dir  Spd
km/h
Gust
km/h
Spd
kts
Gust
kts
22/11:30pm 8.8 6.9 2.6 65 2.7 SE 2 4 1 2 1024.8 1024.1 0.0
22/11:00pm 8.5 6.9 2.5 66 2.6 CALM 0 0 0 0 1024.6 1023.9 0.0
22/10:30pm 9.3 7.8 2.9 64 2.8 CALM 0 0 0 0 1024.6 1023.9 0.0
22/10:00pm 9.6 8.1 3.1 64 2.8 CALM 0 0 0 0 1024.6 1023.9 0.0
22/09:30pm 10.3 8.9 3.3 62 3.1 CALM 0 0 0 0 1024.6 1023.9 0.0
22/09:00pm 9.6 8.1 2.9 63 2.9 CALM 0 0 0 0 1024.7 1024.0 0.0
22/08:30pm 9.9 8.4 3.0 62 3.0 CALM 0 0 0 0 1024.4 1023.7 0.0
22/08:00pm 10.5 9.0 3.1 60 3.3 CALM 0 0 0 0 1024.4 1023.7 0.0
22/07:30pm 11.4 9.5 2.7 55 3.8 SW 2 2 1 1 1024.2 1023.5 0.0
22/07:00pm 11.9 9.6 2.9 54 4.0 SW 4 4 2 2 1024.0 1023.3 0.0
22/06:30pm 13.5 11.9 2.4 47 5.0 CALM 0 0 0 0 1023.8 1023.1 0.0
22/06:00pm 15.2 13.2 2.4 42 5.8 SW 2 4 1 2 1023.5 1022.8 0.0
22/05:50pm 15.4 13.2 1.2 38 6.3 WNW 2 2 1 1 1023.4 1022.7 0.0
22/05:30pm 20.6 18.5 2.0 29 8.7 WNW 2 4 1 2 1023.2 1022.5 0.0
22/05:00pm 22.5 20.5 2.1 26 9.7 NNE 2 6 1 3 1023.0 1022.3 0.0
22/04:30pm 22.6 20.2 2.1 26 9.8 NNE 4 7 2 4 1022.8 1022.1 0.0
22/04:00pm 22.8 19.4 1.8 25 9.9 NW 9 17 5 9 1022.8 1022.1 0.0
22/03:30pm 23.1 19.3 2.0 25 10.1 NNW 11 15 6 8 1022.9 1022.2 0.0
22/03:00pm 22.9 19.5 1.9 25 10.0 NW 9 15 5 8 1022.8 1022.1 0.0
22/02:30pm 22.8 18.6 1.8 25 10.0 NW 13 22 7 12 1022.8 1022.1 0.0
22/02:00pm 22.4 17.9 2.0 26 9.7 NW 15 24 8 13 1022.9 1022.2 0.0
22/01:30pm 22.6 18.9 2.1 26 9.8 NW 11 20 6 11 1023.2 1022.5 0.0
22/01:00pm 21.8 18.0 2.0 27 9.3 NNW 11 22 6 12 1023.6 1022.9 0.0
22/12:30pm 21.6 17.1 2.3 28 9.2 NNW 15 22 8 12 1024.0 1023.3 0.0
22/12:00pm 21.1 15.9 2.4 29 8.8 NNW 19 28 10 15 1024.5 1023.8 0.0
22/11:30am 20.9 15.1 2.2 29 8.8 NNW 22 30 12 16 1024.9 1024.2 0.0
22/11:00am 20.3 14.9 2.6 31 8.3 NNW 20 28 11 15 1025.2 1024.5 0.0
22/10:30am 19.2 12.2 2.1 32 8.0 NNW 28 35 15 19 1025.7 1025.0 0.0
22/10:00am 18.8 11.8 2.2 33 7.7 NNW 28 37 15 20 1025.9 1025.2 0.0
22/09:30am 17.8 12.5 2.9 37 7.0 N 20 28 11 15 1025.7 1025.0 0.0
22/09:00am 15.5 10.3 2.7 42 5.8 N 19 26 10 14 1025.9 1025.2 0.0
22/08:30am 13.5 10.6 4.4 54 4.2 NNE 9 13 5 7 1026.1 1025.4 0.0
22/08:00am 10.4 8.4 4.3 66 2.8 NE 4 6 2 3 1026.0 1025.3 0.0
22/07:30am 8.4 7.5 5.9 84 1.2 CALM 0 0 0 0 1025.8 1025.1 0.0
22/07:00am 4.9 3.4 3.2 89 0.7 CALM 0 0 0 0 1025.6 1024.9 0.0
22/06:30am 3.8 2.1 2.0 88 0.7 CALM 0 0 0 0 1025.2 1024.5 0.0
22/06:00am 4.3 2.7 2.7 89 0.7 CALM 0 0 0 0 1025.2 1024.5 0.0
22/05:30am 4.1 2.4 2.1 87 0.8 CALM 0 0 0 0 1025.1 1024.4 0.0
22/05:00am 4.6 3.1 2.9 89 0.7 CALM 0 0 0 0 1025.3 1024.7 0.0
22/04:30am 4.3 2.7 2.3 87 0.8 CALM 0 0 0 0 1025.0 1024.3 0.0
22/04:00am 4.4 2.8 2.3 86 0.9 CALM 0 0 0 0 1025.0 1024.3 0.0
22/03:30am 5.0 3.5 3.0 87 0.8 CALM 0 0 0 0 1025.0 1024.3 0.0
22/03:00am 4.6 3.0 2.3 85 0.9 CALM 0 0 0 0 1025.1 1024.4 0.0
22/02:30am 5.0 3.0 2.4 83 1.1 SSW 2 2 1 1 1025.2 1024.5 0.0
22/02:00am 4.9 2.8 1.9 81 1.2 E 2 2 1 1 1025.1 1024.4 0.0
22/01:30am 5.4 3.4 2.2 80 1.3 ESE 2 4 1 2 1025.3 1024.7 0.0
22/01:00am 7.2 5.0 3.6 78 1.6 E 4 6 2 3 1025.2 1024.5 0.0
22/12:30am 6.2 3.5 2.7 78 1.5 SE 6 6 3 3 1025.2 1024.5 0.0
22/12:00am 6.1 3.7 2.0 75 1.7 E 4 4 2 2 1025.2 1024.5 0.0
 
Date/Time
WST
Temp
°C
App
Temp
°C
Dew
Point
°C
Rel
Hum
%
Delta-T
°C
Wind Press
QNH
hPa
Press
MSL
hPa
Rain since
9am
mm
Dir  Spd
km/h
Gust
km/h
Spd
kts
Gust
kts
21/11:30pm 7.1 5.4 1.6 68 2.3 CALM 0 2 0 1 1025.2 1024.5 0.0
21/11:00pm 8.4 5.6 2.0 64 2.7 ESE 6 6 3 3 1025.7 1025.0 0.0
21/10:30pm 9.1 6.5 1.0 57 3.4 ESE 4 6 2 3 1025.9 1025.2 0.0
21/10:00pm 9.1 6.3 -0.5 51 3.8 ESE 4 6 2 3 1026.0 1025.3 0.0
21/09:30pm 9.6 6.8 -0.6 49 4.1 SE 4 6 2 3 1026.0 1025.3 0.0
21/09:00pm 9.6 7.1 -0.9 48 4.2 SE 2 4 1 2 1026.0 1025.3 0.0
21/08:30pm 9.2 6.9 0.6 55 3.5 SSW 2 4 1 2 1026.1 1025.4 0.0
21/08:00pm 8.3 6.4 0.8 59 3.1 CALM 0 0 0 0 1026.1 1025.4 0.0
21/07:30pm 9.0 7.0 0.2 54 3.6 CALM 0 2 0 1 1026.2 1025.5 0.0
21/07:00pm 9.4 7.5 0.3 53 3.7 CALM 0 0 0 0 1026.3 1025.6 0.0
21/06:30pm 11.2 9.1 -0.6 44 4.8 CALM 0 0 0 0 1026.1 1025.4 0.0
21/06:00pm 12.5 9.8 -2.1 36 5.8 SE 2 2 1 1 1025.9 1025.2 0.0
21/05:30pm 16.9 13.3 -3.8 24 8.4 E 6 6 3 3 1025.4 1024.8 0.0
21/05:00pm 18.1 13.8 -5.2 20 9.2 ESE 9 11 5 6 1025.3 1024.7 0.0
21/04:30pm 19.0 14.6 -5.8 18 9.8 ESE 9 13 5 7 1025.3 1024.7 0.0
21/04:00pm 19.3 15.6 -4.2 20 9.6 ESE 6 15 3 8 1025.2 1024.5 0.0
21/03:30pm 19.4 15.3 -2.8 22 9.4 SE 9 13 5 7 1025.3 1024.7 0.0
21/03:00pm 19.4 15.8 -3.5 21 9.5 NE 6 15 3 8 1025.6 1024.9 0.0
21/02:30pm 19.5 15.9 -2.2 23 9.3 ENE 7 19 4 10 1025.7 1025.0 0.0
21/02:00pm 19.2 15.6 -1.8 24 9.0 SE 7 13 4 7 1026.0 1025.3 0.0
21/01:30pm 18.7 15.2 -1.2 26 8.6 ENE 7 17 4 9 1026.2 1025.5 0.0
21/01:00pm 18.1 14.7 -1.7 26 8.4 ESE 6 13 3 7 1026.5 1025.8 0.0
21/12:30pm 17.3 14.1 0.5 32 7.5 N 7 11 4 6 1027.1 1026.4 0.0
21/12:00pm 16.4 13.7 0.5 34 7.0 SE 4 7 2 4 1027.7 1027.0 0.0
21/11:30am 15.9 13.5 2.0 39 6.3 NE 4 9 2 5 1028.1 1027.5 0.0
21/11:00am 15.2 12.6 3.0 44 5.6 SSW 6 9 3 5 1028.4 1027.8 0.0
21/10:30am 14.4 11.9 3.5 48 5.0 S 6 17 3 9 1029.2 1028.5 0.0
21/10:00am 13.9 12.2 4.2 52 4.5 ENE 2 6 1 3 1029.0 1028.3 0.0
21/09:30am 13.0 11.5 5.2 59 3.7 SE 2 4 1 2 1028.9 1028.2 0.0
21/09:00am 11.7 10.9 6.4 70 2.5 CALM 0 4 0 2 1029.0 1028.3 0.0
21/08:30am 9.5 8.2 5.9 78 1.7 NE 2 4 1 2 1028.9 1028.2 0.0
21/08:00am 7.3 6.3 5.6 89 0.8 CALM 0 0 0 0 1028.7 1028.1 0.0
21/07:30am 4.6 3.2 3.4 92 0.5 CALM 0 0 0 0 1028.5 1027.9 0.0
21/07:00am 2.1 0.2 0.6 90 0.6 CALM 0 0 0 0 1028.4 1027.8 0.0
21/06:30am 1.4 -0.6 -0.2 89 0.6 CALM 0 0 0 0 1027.7 1027.0 0.0
21/06:00am 1.4 -0.6 -0.2 89 0.6 CALM 0 0 0 0 1027.8 1027.1 0.0
21/05:30am 1.7 -0.3 -0.1 88 0.7 CALM 0 0 0 0 1027.6 1026.9 0.0
21/05:00am 2.7 0.1 1.2 90 0.6 WSW 4 4 2 2 1027.2 1026.5 0.0
21/04:30am 2.6 0.0 1.0 89 0.6 WSW 4 6 2 3 1027.2 1026.5 0.0
21/04:00am 2.8 0.3 1.3 90 0.6 W 4 6 2 3 1027.1 1026.4 0.0
21/03:30am 2.1 -0.2 0.3 88 0.7 N 2 4 1 2 1026.9 1026.2 0.0
21/03:00am 3.1 0.6 1.5 89 0.6 WSW 4 6 2 3 1026.8 1026.1 0.0
21/02:30am 2.6 0.3 0.7 87 0.7 NW 2 4 1 2 1026.8 1026.1 0.0
21/02:00am 4.3 2.0 2.5 88 0.7 NNE 4 6 2 3 1027.1 1026.4 0.0
21/01:30am 3.1 1.2 0.7 84 0.9 CALM 0 0 0 0 1027.2 1026.5 0.0
21/01:00am 4.4 2.8 2.4 87 0.8 CALM 0 0 0 0 1027.3 1026.6 0.0
21/12:30am 4.0 1.1 1.7 85 0.9 WSW 6 6 3 3 1027.3 1026.6 0.0
21/12:00am 4.0 2.3 1.7 85 0.9 CALM 0 0 0 0 1026.9 1026.2 0.0
 
Date/Time
WST
Temp
°C
App
Temp
°C
Dew
Point
°C
Rel
Hum
%
Delta-T
°C
Wind Press
QNH
hPa
Press
MSL
hPa
Rain since
9am
mm
Dir  Spd
km/h
Gust
km/h
Spd
kts
Gust
kts
20/11:30pm 5.3 3.7 2.3 81 1.2 CALM 0 4 0 2 1026.7 1026.0 0.0
20/11:00pm 5.5 3.6 2.7 82 1.2 NW 2 6 1 3 1027.0 1026.3 0.0
20/10:30pm 6.8 3.6 3.1 77 1.6 SSW 9 9 5 5 1027.2 1026.5 0.0

Other formats

Comma delimited format used in spreadsheet applications
http://www.bom.gov.au/fwo/IDW60801/IDW60801.94628.axf

JavaScript Object Notation format (JSON) in row-major order
http://www.bom.gov.au/fwo/IDW60801/IDW60801.94628.json

Data quality

Most of these data are generated automatically and are frequently updated. Quality checks on data are not normally performed. It is possible for incorrect values to appear. Refer to information at About Latest Weather Observations and please check the disclaimer before using these data.